createdAt,value
2023-09-24T00:00:53.240Z,101397.10
2023-09-24T00:03:54.771Z,101404.25
2023-09-24T00:06:40.247Z,101409.64
2023-09-24T00:09:16.693Z,101410.84
2023-09-24T00:11:53.576Z,101420.77
2023-09-24T00:14:30.416Z,101422.52
2023-09-24T00:17:06.527Z,101423.83
2023-09-24T00:19:42.968Z,101426.44
2023-09-24T00:22:24.911Z,101428.00
2023-09-24T00:25:07.947Z,101432.52
2023-09-24T00:27:44.474Z,101436.56
2023-09-24T00:30:28.073Z,101436.48
2023-09-24T00:33:07.734Z,101442.71
2023-09-24T00:35:45.304Z,101442.12
2023-09-24T00:38:24.694Z,101439.38
2023-09-24T00:41:04.045Z,101439.39
2023-09-24T00:43:47.619Z,101438.08
2023-09-24T00:46:28.304Z,101431.42
2023-09-24T00:49:06.859Z,101439.09
2023-09-24T00:51:44.000Z,101436.34
2023-09-24T00:54:22.913Z,101438.10
2023-09-24T00:57:00.132Z,101443.05
2023-09-24T00:59:37.496Z,101449.52
2023-09-24T01:02:21.609Z,101452.07
2023-09-24T01:04:59.571Z,101453.10
2023-09-24T01:07:38.265Z,101457.98
2023-09-24T01:10:18.517Z,101462.52
2023-09-24T01:13:07.316Z,101459.38
2023-09-24T01:15:42.597Z,101459.02
2023-09-24T01:18:25.551Z,101464.52
2023-09-24T01:21:02.886Z,101466.56
2023-09-24T01:23:47.930Z,101465.42
2023-09-24T01:26:28.904Z,101465.35
2023-09-24T01:29:05.200Z,101460.06
2023-09-24T01:31:44.511Z,101460.52
2023-09-24T01:34:20.812Z,101461.86
2023-09-24T01:37:00.122Z,101465.48
2023-09-24T01:39:38.010Z,101463.23
2023-09-24T01:42:15.159Z,101462.09
2023-09-24T01:44:53.730Z,101467.07
2023-09-24T01:47:31.693Z,101467.15
2023-09-24T01:50:10.296Z,101467.41
2023-09-24T01:52:49.301Z,101468.32
2023-09-24T01:55:24.561Z,101465.66
2023-09-24T01:58:01.885Z,101473.35
2023-09-24T02:00:38.789Z,101474.97
2023-09-24T02:03:17.262Z,101472.13
2023-09-24T02:05:52.130Z,101476.73
2023-09-24T02:08:27.279Z,101479.30
2023-09-24T02:11:02.684Z,101482.90
2023-09-24T02:13:40.024Z,101486.11
2023-09-24T02:16:16.241Z,101490.14
2023-09-24T02:18:51.399Z,101498.88
2023-09-24T02:21:26.563Z,101500.66
2023-09-24T02:24:05.102Z,101503.10
2023-09-24T02:26:39.469Z,101507.53
2023-09-24T02:29:17.640Z,101514.45
2023-09-24T02:31:55.812Z,101517.40
2023-09-24T02:34:33.591Z,101520.06
2023-09-24T02:37:11.116Z,101522.56
2023-09-24T02:39:47.217Z,101524.17
2023-09-24T02:42:27.403Z,101532.16
2023-09-24T02:45:01.527Z,101532.36
2023-09-24T02:47:39.337Z,101534.70
2023-09-24T02:50:15.805Z,101537.94
2023-09-24T02:52:52.116Z,101542.23
2023-09-24T02:55:28.640Z,101550.70
2023-09-24T02:58:08.964Z,101558.80
2023-09-24T03:00:44.817Z,101563.99
2023-09-24T03:03:19.305Z,101565.98
2023-09-24T03:05:57.418Z,101570.42
2023-09-24T03:08:34.777Z,101572.89
2023-09-24T03:11:18.736Z,101579.73
2023-09-24T03:13:59.651Z,101581.09
2023-09-24T03:16:34.733Z,101585.35
2023-09-24T03:19:10.914Z,101591.42
2023-09-24T03:21:45.736Z,101587.15
2023-09-24T03:24:23.305Z,101590.70
2023-09-24T03:26:56.947Z,101588.77
2023-09-24T03:29:31.844Z,101593.44
2023-09-24T03:32:08.711Z,101596.30
2023-09-24T03:34:47.103Z,101603.83
2023-09-24T03:37:25.275Z,101610.69
2023-09-24T03:40:00.398Z,101617.44
2023-09-24T03:42:41.456Z,101617.35
2023-09-24T03:45:26.838Z,101616.30
2023-09-24T03:48:05.537Z,101614.13
2023-09-24T03:50:44.124Z,101621.70
2023-09-24T03:53:26.366Z,101627.69
2023-09-24T03:56:03.322Z,101630.67
2023-09-24T03:58:39.492Z,101633.52
2023-09-24T04:01:21.107Z,101634.64
2023-09-24T04:03:56.271Z,101639.43
2023-09-24T04:06:34.193Z,101642.13
2023-09-24T04:09:11.689Z,101649.84
2023-09-24T04:11:52.459Z,101652.84
2023-09-24T04:14:32.098Z,101652.59
2023-09-24T04:17:07.519Z,101647.95
2023-09-24T04:19:47.198Z,101650.27
2023-09-24T04:22:24.100Z,101659.08
2023-09-24T04:25:00.778Z,101666.30
2023-09-24T04:27:45.591Z,101679.65
2023-09-24T04:30:24.110Z,101680.08
2023-09-24T04:33:03.851Z,101678.27
2023-09-24T04:35:38.359Z,101679.48
2023-09-24T04:38:15.398Z,101678.95
2023-09-24T04:40:53.009Z,101682.08
2023-09-24T04:43:29.025Z,101692.73
2023-09-24T04:46:08.434Z,101700.82
2023-09-24T04:48:44.691Z,101699.21
2023-09-24T04:51:24.528Z,101703.13
2023-09-24T04:54:02.311Z,101706.31
2023-09-24T04:56:41.027Z,101709.67
2023-09-24T04:59:18.305Z,101715.55
2023-09-24T05:01:52.893Z,101714.57
2023-09-24T05:04:36.627Z,101718.91
2023-09-24T05:07:12.617Z,101724.83
2023-09-24T05:09:51.389Z,101727.06
2023-09-24T05:12:26.062Z,101729.44
2023-09-24T05:15:02.169Z,101736.73
2023-09-24T05:17:41.426Z,101743.72
2023-09-24T05:20:20.654Z,101746.80
2023-09-24T05:23:03.892Z,101748.46
2023-09-24T05:25:42.413Z,101748.52
2023-09-24T05:28:17.569Z,101756.41
2023-09-24T05:30:59.527Z,101758.47
2023-09-24T05:33:37.064Z,101767.93
2023-09-24T05:36:15.823Z,101769.94
2023-09-24T05:38:54.196Z,101771.36
2023-09-24T05:41:29.233Z,101775.23
2023-09-24T05:44:11.487Z,101778.55
2023-09-24T05:46:57.045Z,101781.90
2023-09-24T05:49:40.069Z,101785.75
2023-09-24T05:52:18.858Z,101788.44
2023-09-24T05:54:58.595Z,101785.20
2023-09-24T05:57:38.268Z,101786.10
2023-09-24T06:00:19.703Z,101786.94
2023-09-24T06:02:53.800Z,101788.91
2023-09-24T06:05:30.977Z,101786.27
2023-09-24T06:08:06.519Z,101794.59
2023-09-24T06:10:51.223Z,101798.30
2023-09-24T06:13:31.841Z,101803.61
2023-09-24T06:16:08.956Z,101805.91
2023-09-24T06:18:46.857Z,101808.55
2023-09-24T06:21:32.916Z,101815.16
2023-09-24T06:24:21.715Z,101810.55
2023-09-24T06:26:57.052Z,101810.04
2023-09-24T06:29:37.762Z,101816.17
2023-09-24T06:32:22.613Z,101822.02
2023-09-24T06:34:58.889Z,101823.07
2023-09-24T06:37:46.330Z,101821.96
2023-09-24T06:40:28.227Z,101827.54
2023-09-24T06:43:06.442Z,101833.75
2023-09-24T06:45:42.389Z,101839.45
2023-09-24T06:48:21.738Z,101838.16
2023-09-24T06:50:57.622Z,101845.96
2023-09-24T06:53:32.362Z,101849.80
2023-09-24T06:56:10.921Z,101846.54
2023-09-24T06:58:52.426Z,101842.60
2023-09-24T07:01:31.229Z,101844.15
2023-09-24T07:04:12.565Z,101848.39
2023-09-24T07:06:53.642Z,101855.49
2023-09-24T07:09:30.863Z,101858.40
2023-09-24T07:12:12.888Z,101858.06
2023-09-24T07:15:01.824Z,101861.45
2023-09-24T07:17:37.719Z,101866.42
2023-09-24T07:20:18.552Z,101871.90
2023-09-24T07:22:54.963Z,101882.77
2023-09-24T07:25:32.271Z,101883.70
2023-09-24T07:28:10.526Z,101888.12
2023-09-24T07:30:53.958Z,101886.64
2023-09-24T07:33:29.935Z,101891.25
2023-09-24T07:36:08.309Z,101895.77
2023-09-24T07:38:59.023Z,101899.07
2023-09-24T07:41:35.600Z,101902.99
2023-09-24T07:44:12.426Z,101902.27
2023-09-24T07:46:50.077Z,101901.63
2023-09-24T07:49:29.954Z,101904.20
2023-09-24T07:52:08.336Z,101905.98
2023-09-24T07:54:48.797Z,101906.70
2023-09-24T07:57:24.783Z,101909.91
2023-09-24T08:00:05.542Z,101913.91
2023-09-24T08:02:48.340Z,101918.77
2023-09-24T08:05:40.212Z,101922.66
2023-09-24T08:08:18.254Z,101923.77
2023-09-24T08:10:56.505Z,101927.30
2023-09-24T08:13:32.478Z,101930.26
2023-09-24T08:16:08.917Z,101930.42
2023-09-24T08:18:45.740Z,101929.88
2023-09-24T08:21:23.821Z,101935.92
2023-09-24T08:24:00.746Z,101942.11
2023-09-24T08:26:38.288Z,101940.95
2023-09-24T08:29:19.311Z,101935.74
2023-09-24T08:31:54.600Z,101932.62
2023-09-24T08:34:30.768Z,101934.61
2023-09-24T08:37:05.292Z,101935.22
2023-09-24T08:39:40.312Z,101936.61
2023-09-24T08:42:22.213Z,101936.10
2023-09-24T08:45:07.904Z,101939.52
2023-09-24T08:47:46.567Z,101935.55
2023-09-24T08:50:21.269Z,101939.23
2023-09-24T08:52:59.150Z,101938.20
2023-09-24T08:55:36.328Z,101946.66
2023-09-24T08:58:09.728Z,101947.49
2023-09-24T09:00:46.936Z,101940.50
2023-09-24T09:03:23.869Z,101942.11
2023-09-24T09:05:57.601Z,101946.78
2023-09-24T09:08:31.964Z,101946.18
2023-09-24T09:11:09.185Z,101945.44
2023-09-24T09:13:47.846Z,101945.46
2023-09-24T09:16:24.174Z,101944.87
2023-09-24T09:19:04.697Z,101949.20
2023-09-24T09:21:42.472Z,101950.84
2023-09-24T09:24:25.380Z,101952.95
2023-09-24T09:27:00.933Z,101952.11
2023-09-24T09:29:35.456Z,101958.77
2023-09-24T09:32:13.925Z,101952.07
2023-09-24T09:34:58.027Z,101951.15
2023-09-24T09:37:32.600Z,101950.61
2023-09-24T09:40:24.756Z,101948.69
2023-09-24T09:43:01.561Z,101944.58
2023-09-24T09:45:37.413Z,101941.73
2023-09-24T09:48:16.904Z,101948.29
2023-09-24T09:50:54.188Z,101950.14
2023-09-24T09:53:36.458Z,101955.86
2023-09-24T09:56:13.439Z,101964.30
2023-09-24T09:58:55.088Z,101963.71
2023-09-24T10:01:32.072Z,101959.86
2023-09-24T10:04:11.914Z,101959.32
2023-09-24T10:06:48.313Z,101960.83
2023-09-24T10:09:42.488Z,101964.23
2023-09-24T10:12:36.546Z,101966.66
2023-09-24T10:15:31.867Z,101967.35
2023-09-24T10:18:28.283Z,101968.14
2023-09-24T10:21:12.064Z,101972.57
2023-09-24T10:23:48.517Z,101970.02
2023-09-24T10:26:53.260Z,101972.98
2023-09-24T10:30:15.489Z,101972.95
2023-09-24T10:32:56.888Z,101978.23
2023-09-24T10:35:33.998Z,101979.64
2023-09-24T10:38:10.387Z,101982.15
2023-09-24T10:41:15.884Z,101983.96
2023-09-24T10:44:29.045Z,101985.73
2023-09-24T10:47:29.264Z,101990.95
2023-09-24T10:50:08.467Z,101989.65
2023-09-24T10:52:54.888Z,101990.41
2023-09-24T10:55:41.400Z,101995.03
2023-09-24T10:58:21.807Z,101993.14
2023-09-24T11:01:03.531Z,101999.28
2023-09-24T11:03:48.827Z,102001.18
2023-09-24T11:06:35.324Z,102003.59
2023-09-24T11:09:21.989Z,102005.57
2023-09-24T11:11:57.890Z,102004.82
2023-09-24T11:14:33.565Z,102004.99
2023-09-24T11:17:28.066Z,102000.61
2023-09-24T11:20:10.324Z,101998.33
2023-09-24T11:22:47.133Z,102000.48
2023-09-24T11:25:23.235Z,101999.18
2023-09-24T11:27:58.113Z,102001.84
2023-09-24T11:30:46.365Z,101999.62
2023-09-24T11:33:24.398Z,101998.94
2023-09-24T11:36:01.960Z,101994.25
2023-09-24T11:38:41.844Z,101997.98
2023-09-24T11:41:21.139Z,101997.23
2023-09-24T11:44:06.286Z,101996.17
2023-09-24T11:46:41.855Z,101996.74
2023-09-24T11:49:18.500Z,102001.73
2023-09-24T11:51:58.599Z,102005.70
2023-09-24T11:54:37.651Z,102007.08
2023-09-24T11:57:16.611Z,102012.11
2023-09-24T11:59:52.032Z,102011.09
2023-09-24T12:02:26.739Z,102010.16
2023-09-24T12:05:03.497Z,102009.77
2023-09-24T12:07:37.470Z,102007.09
2023-09-24T12:10:18.530Z,102004.77
2023-09-24T12:12:52.938Z,102006.14
2023-09-24T12:15:28.124Z,102001.70
2023-09-24T12:18:20.206Z,101999.77
2023-09-24T12:20:58.605Z,101997.15
2023-09-24T12:23:34.516Z,101995.96
2023-09-24T12:26:10.776Z,101994.77
2023-09-24T12:28:47.618Z,101998.23
2023-09-24T12:31:32.322Z,101999.23
2023-09-24T12:34:08.130Z,101994.96
2023-09-24T12:36:44.983Z,101994.14
2023-09-24T12:39:22.446Z,101991.69
2023-09-24T12:41:55.846Z,101990.36
2023-09-24T12:44:30.150Z,101989.05
2023-09-24T12:47:07.106Z,101988.38
2023-09-24T12:49:41.930Z,101990.20
2023-09-24T12:52:16.759Z,101990.86
2023-09-24T12:54:52.068Z,101989.73
2023-09-24T12:57:27.798Z,101986.05
2023-09-24T13:00:08.018Z,101987.61
2023-09-24T13:02:44.433Z,101987.05
2023-09-24T13:05:23.475Z,101989.82
2023-09-24T13:07:59.260Z,101990.73
2023-09-24T13:10:33.945Z,101987.77
2023-09-24T13:13:09.994Z,101989.45
2023-09-24T13:15:45.772Z,101990.63
2023-09-24T13:18:21.027Z,101987.29
2023-09-24T13:20:56.782Z,101986.64
2023-09-24T13:23:33.404Z,101987.62
2023-09-24T13:26:11.146Z,101986.77
2023-09-24T13:28:44.894Z,101985.15
2023-09-24T13:31:19.176Z,101989.61
2023-09-24T13:33:54.404Z,101991.31
2023-09-24T13:36:32.309Z,101991.75
2023-09-24T13:39:07.501Z,101994.36
2023-09-24T13:41:46.382Z,101994.59
2023-09-24T13:44:25.196Z,102000.00
2023-09-24T13:47:01.471Z,101995.45
2023-09-24T13:49:41.394Z,101995.17
2023-09-24T13:52:19.571Z,101992.73
2023-09-24T13:54:55.658Z,101994.70
2023-09-24T13:57:30.518Z,101998.72
2023-09-24T14:00:14.211Z,101999.83
2023-09-24T14:02:53.439Z,102002.06
2023-09-24T14:05:29.285Z,102000.61
2023-09-24T14:08:17.902Z,102003.66
2023-09-24T14:11:10.836Z,102008.33
2023-09-24T14:13:48.597Z,102006.27
2023-09-24T14:16:26.910Z,102009.76
2023-09-24T14:19:05.729Z,102009.01
2023-09-24T14:21:47.976Z,102012.48
2023-09-24T14:24:23.380Z,102007.00
2023-09-24T14:26:58.812Z,102007.54
2023-09-24T14:29:34.796Z,102008.16
2023-09-24T14:32:11.218Z,102011.33
2023-09-24T14:34:51.181Z,102010.11
2023-09-24T14:37:30.929Z,102010.79
2023-09-24T14:40:14.875Z,102012.64
2023-09-24T14:42:48.967Z,102015.05
2023-09-24T14:45:33.907Z,102021.05
2023-09-24T14:48:10.051Z,102021.49
2023-09-24T14:50:46.109Z,102023.61
2023-09-24T14:53:21.707Z,102026.40
2023-09-24T14:56:04.644Z,102027.46
2023-09-24T14:58:41.464Z,102025.62
2023-09-24T15:01:18.346Z,102024.18
2023-09-24T15:03:54.992Z,102024.73
2023-09-24T15:06:29.552Z,102030.14
2023-09-24T15:09:04.750Z,102030.31
2023-09-24T15:11:43.077Z,102035.41
2023-09-24T15:14:19.674Z,102038.42
2023-09-24T15:16:57.985Z,102040.91
2023-09-24T15:19:36.326Z,102041.58
2023-09-24T15:22:11.862Z,102046.15
2023-09-24T15:24:47.175Z,102046.29
2023-09-24T15:27:22.165Z,102047.20
2023-09-24T15:29:59.651Z,102048.30
2023-09-24T15:32:37.879Z,102047.48
2023-09-24T15:35:15.093Z,102048.19
2023-09-24T15:37:55.585Z,102051.30
2023-09-24T15:40:32.821Z,102057.98
2023-09-24T15:43:10.617Z,102056.61
2023-09-24T15:45:50.481Z,102057.95
2023-09-24T15:48:26.176Z,102062.33
2023-09-24T15:51:01.293Z,102064.56
2023-09-24T15:53:36.442Z,102060.39
2023-09-24T15:56:15.045Z,102064.77
2023-09-24T15:58:52.608Z,102067.41
2023-09-24T16:01:29.039Z,102071.40
2023-09-24T16:04:05.208Z,102069.17
2023-09-24T16:06:44.737Z,102073.77
2023-09-24T16:09:21.723Z,102075.66
2023-09-24T16:11:58.994Z,102079.55
2023-09-24T16:14:34.340Z,102080.00
2023-09-24T16:17:09.910Z,102083.59
2023-09-24T16:19:52.496Z,102082.86
2023-09-24T16:22:28.167Z,102089.92
2023-09-24T16:25:07.145Z,102089.09
2023-09-24T16:27:42.204Z,102098.30
2023-09-24T16:30:19.588Z,102098.95
2023-09-24T16:33:01.748Z,102100.33
2023-09-24T16:35:41.127Z,102102.25
2023-09-24T16:38:18.054Z,102107.45
2023-09-24T16:41:03.431Z,102112.48
2023-09-24T16:43:42.967Z,102121.40
2023-09-24T16:46:19.071Z,102122.56
2023-09-24T16:48:53.316Z,102123.89
2023-09-24T16:51:28.401Z,102126.02
2023-09-24T16:54:09.266Z,102128.56
2023-09-24T16:56:44.845Z,102126.13
2023-09-24T16:59:24.490Z,102130.19
2023-09-24T17:02:04.209Z,102130.20
2023-09-24T17:04:40.627Z,102130.52
2023-09-24T17:07:17.285Z,102136.58
2023-09-24T17:09:50.870Z,102140.34
2023-09-24T17:12:28.164Z,102144.02
2023-09-24T17:15:02.370Z,102145.88
2023-09-24T17:17:38.956Z,102148.01
2023-09-24T17:20:18.253Z,102150.39
2023-09-24T17:22:55.830Z,102154.68
2023-09-24T17:25:30.140Z,102154.00
2023-09-24T17:28:05.364Z,102162.66
2023-09-24T17:30:40.553Z,102166.13
2023-09-24T17:33:19.667Z,102168.95
2023-09-24T17:35:56.756Z,102175.61
2023-09-24T17:38:31.195Z,102182.38
2023-09-24T17:41:06.730Z,102189.08
2023-09-24T17:43:46.163Z,102189.74
2023-09-24T17:46:20.878Z,102195.95
2023-09-24T17:48:57.353Z,102203.64
2023-09-24T17:51:33.416Z,102209.41
2023-09-24T17:54:10.829Z,102211.91
2023-09-24T17:56:46.470Z,102215.10
2023-09-24T17:59:24.062Z,102220.27
2023-09-24T18:02:01.711Z,102220.02
2023-09-24T18:04:36.565Z,102224.46
2023-09-24T18:07:13.115Z,102228.19
2023-09-24T18:09:47.738Z,102229.21
2023-09-24T18:12:25.000Z,102230.27
2023-09-24T18:14:58.664Z,102236.80
2023-09-24T18:17:34.860Z,102237.36
2023-09-24T18:20:17.036Z,102237.64
2023-09-24T18:22:59.732Z,102242.43
2023-09-24T18:25:33.705Z,102240.94
2023-09-24T18:28:07.741Z,102242.71
2023-09-24T18:30:44.178Z,102245.14
2023-09-24T18:33:18.999Z,102250.86
2023-09-24T18:35:56.241Z,102250.79
2023-09-24T18:38:32.262Z,102257.75
2023-09-24T18:41:06.799Z,102264.20
2023-09-24T18:43:49.236Z,102264.20
2023-09-24T18:46:40.735Z,102266.27
2023-09-24T18:49:15.185Z,102271.05
2023-09-24T18:51:52.215Z,102275.33
2023-09-24T18:54:30.177Z,102280.45
2023-09-24T18:57:04.339Z,102280.38
2023-09-24T18:59:39.214Z,102283.73
2023-09-24T19:02:13.822Z,102287.19
2023-09-24T19:04:50.179Z,102288.59
2023-09-24T19:07:27.335Z,102293.27
2023-09-24T19:10:03.535Z,102299.20
2023-09-24T19:12:38.880Z,102299.11
2023-09-24T19:15:17.356Z,102299.92
2023-09-24T19:17:51.815Z,102298.91
2023-09-24T19:20:28.275Z,102300.38
2023-09-24T19:23:04.150Z,102303.27
2023-09-24T19:25:37.912Z,102307.96
2023-09-24T19:28:13.921Z,102309.79
2023-09-24T19:30:56.996Z,102312.02
2023-09-24T19:33:39.159Z,102316.16
2023-09-24T19:36:18.480Z,102318.48
2023-09-24T19:38:53.676Z,102316.18
2023-09-24T19:41:28.422Z,102318.02
2023-09-24T19:44:11.470Z,102319.52
2023-09-24T19:46:46.624Z,102320.24
2023-09-24T19:49:23.150Z,102322.98
2023-09-24T19:52:00.418Z,102322.73
2023-09-24T19:54:43.008Z,102326.81
2023-09-24T19:57:20.579Z,102329.58
2023-09-24T19:59:55.886Z,102331.03
2023-09-24T20:02:31.827Z,102331.38
2023-09-24T20:05:07.817Z,102333.11
2023-09-24T20:07:48.596Z,102339.45
2023-09-24T20:10:23.571Z,102341.84
2023-09-24T20:12:57.177Z,102337.73
2023-09-24T20:15:34.161Z,102340.29
2023-09-24T20:18:11.594Z,102340.25
2023-09-24T20:20:47.549Z,102341.20
2023-09-24T20:23:22.235Z,102340.40
2023-09-24T20:25:57.780Z,102342.97
2023-09-24T20:28:46.821Z,102345.02
2023-09-24T20:31:29.177Z,102349.05
2023-09-24T20:34:05.340Z,102349.05
2023-09-24T20:36:42.456Z,102350.90
2023-09-24T20:39:19.595Z,102350.14
2023-09-24T20:41:59.587Z,102352.95
2023-09-24T20:44:37.562Z,102357.69
2023-09-24T20:47:22.389Z,102361.71
2023-09-24T20:50:07.489Z,102363.48
2023-09-24T20:52:47.672Z,102363.56
2023-09-24T20:55:23.186Z,102366.55
2023-09-24T20:57:59.227Z,102368.69
2023-09-24T21:00:47.456Z,102366.53
2023-09-24T21:03:21.799Z,102367.05
2023-09-24T21:06:01.115Z,102366.42
2023-09-24T21:08:37.518Z,102366.52
2023-09-24T21:11:15.044Z,102365.58
2023-09-24T21:13:50.446Z,102364.45
2023-09-24T21:16:29.569Z,102368.30
2023-09-24T21:19:05.344Z,102367.94
2023-09-24T21:21:41.328Z,102369.33
2023-09-24T21:24:18.067Z,102367.45
2023-09-24T21:26:54.727Z,102368.48
2023-09-24T21:29:30.066Z,102364.56
2023-09-24T21:32:06.456Z,102360.64
2023-09-24T21:34:40.869Z,102357.38
2023-09-24T21:37:19.907Z,102351.85
2023-09-24T21:39:56.413Z,102351.20
2023-09-24T21:42:32.761Z,102351.84
2023-09-24T21:45:15.073Z,102349.54
2023-09-24T21:47:50.422Z,102345.71
2023-09-24T21:50:25.758Z,102348.85
2023-09-24T21:53:02.076Z,102349.85
2023-09-24T21:55:36.669Z,102349.14
2023-09-24T21:58:14.742Z,102348.33
2023-09-24T22:00:54.797Z,102347.10
2023-09-24T22:03:30.640Z,102342.28
2023-09-24T22:06:11.608Z,102344.02
2023-09-24T22:08:48.900Z,102342.88
2023-09-24T22:11:26.048Z,102344.75
2023-09-24T22:14:02.173Z,102345.79
2023-09-24T22:16:35.854Z,102345.95
2023-09-24T22:19:13.485Z,102345.19
2023-09-24T22:21:55.264Z,102350.56
2023-09-24T22:24:31.093Z,102344.66
2023-09-24T22:27:09.057Z,102343.58
2023-09-24T22:29:53.237Z,102347.33
2023-09-24T22:32:33.247Z,102345.44
2023-09-24T22:35:14.220Z,102343.95
2023-09-24T22:37:55.576Z,102342.32
2023-09-24T22:40:37.857Z,102341.95
2023-09-24T22:43:25.517Z,102344.60
2023-09-24T22:46:04.808Z,102349.38
2023-09-24T22:48:42.323Z,102350.30
2023-09-24T22:51:19.960Z,102354.66
2023-09-24T22:53:56.078Z,102358.50
2023-09-24T22:56:35.543Z,102364.96
2023-09-24T22:59:16.450Z,102366.41
2023-09-24T23:01:51.988Z,102368.84
2023-09-24T23:04:27.869Z,102369.02
2023-09-24T23:07:04.954Z,102372.83
2023-09-24T23:09:48.061Z,102377.47
2023-09-24T23:12:23.910Z,102383.35
2023-09-24T23:14:56.612Z,102386.05
2023-09-24T23:17:41.272Z,102387.91
2023-09-24T23:20:25.658Z,102387.94
2023-09-24T23:23:03.628Z,102391.38
2023-09-24T23:25:46.262Z,102395.46
2023-09-24T23:28:21.812Z,102391.60
2023-09-24T23:30:56.456Z,102394.54
2023-09-24T23:33:31.668Z,102395.55
2023-09-24T23:36:09.313Z,102393.36
2023-09-24T23:38:47.000Z,102395.02
2023-09-24T23:41:24.370Z,102397.31
2023-09-24T23:44:01.766Z,102400.94
2023-09-24T23:46:42.692Z,102406.19
2023-09-24T23:49:19.399Z,102405.55
2023-09-24T23:51:56.815Z,102402.86
2023-09-24T23:54:33.804Z,102404.69
2023-09-24T23:57:08.019Z,102410.15
2023-09-24T23:59:44.410Z,102411.80
